createdAt,value
2022-10-08T00:04:06.248Z,30.63
2022-10-08T00:09:08.180Z,32.03
2022-10-08T00:14:10.218Z,27.77
2022-10-08T00:19:15.670Z,35.38
2022-10-08T00:24:18.654Z,33.97
2022-10-08T00:29:21.510Z,35.15
2022-10-08T00:34:24.738Z,33.75
2022-10-08T00:39:26.279Z,38.03
2022-10-08T00:44:54.342Z,31.63
2022-10-08T00:50:00.175Z,30.70
2022-10-08T00:55:01.967Z,30.75
2022-10-08T01:00:06.095Z,28.15
2022-10-08T01:05:10.092Z,28.75
2022-10-08T01:10:19.518Z,28.45
2022-10-08T01:15:27.982Z,28.48
2022-10-08T01:20:46.403Z,30.77
2022-10-08T01:25:53.494Z,33.88
2022-10-08T01:31:02.644Z,35.47
2022-10-08T01:36:06.969Z,24.42
2022-10-08T01:41:12.431Z,27.65
2022-10-08T01:46:20.051Z,34.58
2022-10-08T01:51:24.921Z,27.40
2022-10-08T01:56:28.920Z,31.17
2022-10-08T02:01:39.847Z,24.35
2022-10-08T02:06:45.100Z,30.13
2022-10-08T02:11:46.059Z,26.30
2022-10-08T02:16:56.993Z,31.25
2022-10-08T02:22:01.476Z,25.15
2022-10-08T02:27:05.553Z,30.02
2022-10-08T02:32:15.453Z,29.50
2022-10-08T02:37:22.359Z,30.90
2022-10-08T02:42:25.982Z,26.73
2022-10-08T02:47:32.514Z,28.25
2022-10-08T02:52:39.432Z,22.17
2022-10-08T02:57:45.850Z,28.02
2022-10-08T03:02:53.494Z,28.05
2022-10-08T03:07:56.788Z,31.02
2022-10-08T03:13:01.709Z,26.40
2022-10-08T03:18:08.164Z,29.50
2022-10-08T03:23:09.659Z,27.30
2022-10-08T03:28:10.558Z,24.77
2022-10-08T03:33:12.727Z,26.05
2022-10-08T03:38:15.449Z,30.67
2022-10-08T03:43:16.217Z,25.70
2022-10-08T03:48:18.732Z,29.63
2022-10-08T03:53:19.610Z,33.63
2022-10-08T03:58:21.490Z,27.25
2022-10-08T04:03:23.623Z,32.25
2022-10-08T04:08:24.828Z,31.92
2022-10-08T04:13:25.672Z,30.08
2022-10-08T04:18:28.232Z,35.60
2022-10-08T04:23:30.088Z,26.42
2022-10-08T04:28:34.998Z,31.30
2022-10-08T04:33:40.175Z,31.52
2022-10-08T04:38:42.613Z,40.72
2022-10-08T04:43:44.935Z,34.20
2022-10-08T04:48:49.676Z,31.98
2022-10-08T04:53:50.666Z,26.42
2022-10-08T04:58:51.586Z,35.85
2022-10-08T05:03:55.244Z,27.75
2022-10-08T05:08:56.284Z,30.73
2022-10-08T05:13:58.749Z,41.03
2022-10-08T05:19:01.066Z,28.92
2022-10-08T05:24:04.059Z,36.70
2022-10-08T05:29:05.538Z,33.83
2022-10-08T05:34:07.753Z,27.73
2022-10-08T05:39:08.685Z,36.08
2022-10-08T05:44:11.705Z,33.22
2022-10-08T05:49:18.937Z,33.08
2022-10-08T05:54:20.143Z,37.35
2022-10-08T05:59:23.426Z,37.80
2022-10-08T06:04:25.595Z,31.70
2022-10-08T06:09:26.367Z,32.97
2022-10-08T06:14:27.857Z,29.92
2022-10-08T06:19:30.106Z,28.58
2022-10-08T06:24:30.937Z,30.48
2022-10-08T06:29:31.690Z,29.02
2022-10-08T06:34:33.831Z,30.58
2022-10-08T06:39:34.675Z,27.35
2022-10-08T06:44:35.521Z,36.95
2022-10-08T06:49:37.691Z,29.02
2022-10-08T06:54:38.518Z,30.67
2022-10-08T06:59:39.249Z,25.10
2022-10-08T07:04:41.389Z,32.70
2022-10-08T07:09:42.171Z,26.65
2022-10-08T07:14:43.052Z,25.85
2022-10-08T07:19:45.214Z,22.50
2022-10-08T07:24:46.064Z,27.48
2022-10-08T07:29:47.128Z,21.95
2022-10-08T07:34:49.281Z,16.67
2022-10-08T07:39:50.061Z,15.18
2022-10-08T07:44:50.884Z,11.55
2022-10-08T07:49:53.029Z,9.18
2022-10-08T07:54:53.851Z,14.60
2022-10-08T07:59:54.838Z,10.40
2022-10-08T08:04:57.049Z,8.43
2022-10-08T08:09:57.904Z,11.25
2022-10-08T08:14:58.710Z,10.65
2022-10-08T08:20:00.860Z,7.75
2022-10-08T08:25:01.653Z,5.93
2022-10-08T08:30:02.504Z,12.50
2022-10-08T08:35:05.102Z,11.75
2022-10-08T08:40:07.008Z,10.20
2022-10-08T08:45:45.440Z,8.60
2022-10-08T08:50:48.866Z,7.72
2022-10-08T08:55:53.981Z,10.43
2022-10-08T09:01:01.264Z,9.30
2022-10-08T09:06:10.070Z,11.93
2022-10-08T09:11:15.216Z,5.82
2022-10-08T09:16:17.612Z,8.52
2022-10-08T09:21:20.954Z,8.38
2022-10-08T09:26:23.871Z,9.93
2022-10-08T09:31:27.290Z,12.35
2022-10-08T09:36:36.697Z,17.83
2022-10-08T09:41:37.530Z,18.58
2022-10-08T09:46:38.354Z,9.88
2022-10-08T09:51:43.200Z,9.23
2022-10-08T09:56:53.797Z,10.57
2022-10-08T10:01:54.871Z,4.30
2022-10-08T10:06:57.139Z,7.85
2022-10-08T10:12:01.481Z,13.90
2022-10-08T10:17:08.356Z,6.88
2022-10-08T10:22:15.248Z,26.70
2022-10-08T10:27:19.268Z,8.07
2022-10-08T10:32:28.434Z,13.20
2022-10-08T10:37:41.519Z,9.65
2022-10-08T10:42:50.909Z,9.18
2022-10-08T10:47:52.033Z,8.57
2022-10-08T10:53:05.784Z,14.48
2022-10-08T10:58:23.534Z,12.80
2022-10-08T11:03:33.535Z,7.80
2022-10-08T11:08:46.224Z,15.82
2022-10-08T11:13:57.780Z,7.57
2022-10-08T11:19:00.862Z,8.70
2022-10-08T11:24:19.701Z,9.18
2022-10-08T11:29:27.014Z,10.57
2022-10-08T11:34:30.679Z,12.18
2022-10-08T11:39:43.201Z,11.68
2022-10-08T11:44:44.152Z,14.60
2022-10-08T11:49:54.264Z,10.82
2022-10-08T11:54:57.754Z,8.25
2022-10-08T12:00:07.718Z,6.35
2022-10-08T12:05:32.771Z,5.07
2022-10-08T12:10:36.786Z,6.35
2022-10-08T12:15:57.711Z,5.78
2022-10-08T12:21:50.320Z,9.90
2022-10-08T12:27:28.503Z,7.70
2022-10-08T12:32:31.245Z,5.97
2022-10-08T12:38:03.699Z,12.02
2022-10-08T12:43:17.106Z,8.85
2022-10-08T12:48:31.315Z,7.10
2022-10-08T12:53:33.499Z,6.82
2022-10-08T12:58:37.985Z,8.73
2022-10-08T13:03:38.853Z,5.70
2022-10-08T13:08:42.636Z,7.85
2022-10-08T13:13:50.427Z,8.80
2022-10-08T13:18:53.959Z,4.10
2022-10-08T13:23:55.075Z,6.70
2022-10-08T13:29:34.758Z,6.78
2022-10-08T13:34:43.372Z,5.30
2022-10-08T13:39:51.923Z,4.97
2022-10-08T13:44:53.445Z,5.45
2022-10-08T13:50:00.630Z,3.10
2022-10-08T13:55:04.069Z,2.97
2022-10-08T14:00:06.380Z,6.18
2022-10-08T14:05:09.084Z,5.53
2022-10-08T14:10:14.257Z,3.95
2022-10-08T14:15:16.683Z,8.00
2022-10-08T14:20:19.068Z,10.57
2022-10-08T14:25:22.952Z,13.10
2022-10-08T14:30:23.797Z,6.85
2022-10-08T14:35:25.941Z,5.70
2022-10-08T14:40:26.714Z,10.25
2022-10-08T14:45:27.568Z,7.07
2022-10-08T14:50:29.792Z,7.25
2022-10-08T14:55:30.641Z,10.43
2022-10-08T15:00:31.477Z,4.47
2022-10-08T15:05:33.721Z,7.85
2022-10-08T15:10:35.464Z,5.78
2022-10-08T15:15:39.877Z,4.97
2022-10-08T15:20:42.243Z,4.00
2022-10-08T15:25:43.125Z,3.40
2022-10-08T15:30:45.700Z,4.53
2022-10-08T15:35:47.848Z,2.88
2022-10-08T15:40:48.693Z,7.82
2022-10-08T15:45:49.531Z,6.07
2022-10-08T15:51:00.382Z,5.55
2022-10-08T15:56:01.187Z,6.38
2022-10-08T16:01:06.969Z,5.75
2022-10-08T16:06:10.857Z,4.72
2022-10-08T16:11:14.088Z,6.25
2022-10-08T16:16:16.734Z,3.65
2022-10-08T16:21:21.217Z,4.28
2022-10-08T16:26:22.866Z,6.97
2022-10-08T16:31:25.107Z,5.65
2022-10-08T16:36:28.781Z,4.80
2022-10-08T16:41:31.350Z,6.60
2022-10-08T16:46:34.997Z,5.47
2022-10-08T16:51:38.617Z,6.47
2022-10-08T16:56:41.561Z,9.15
2022-10-08T17:01:44.431Z,6.63
2022-10-08T17:06:46.999Z,6.78
2022-10-08T17:11:47.930Z,8.57
2022-10-08T17:16:50.682Z,7.75
2022-10-08T17:21:52.983Z,7.18
2022-10-08T17:26:53.997Z,7.43
2022-10-08T17:31:54.858Z,10.85
2022-10-08T17:36:57.117Z,9.40
2022-10-08T17:41:57.984Z,7.95
2022-10-08T17:47:00.051Z,13.45
2022-10-08T17:52:02.278Z,9.02
2022-10-08T17:57:03.175Z,6.25
2022-10-08T18:02:04.193Z,11.10
2022-10-08T18:07:06.543Z,9.07
2022-10-08T18:12:08.878Z,16.00
2022-10-08T18:17:09.703Z,6.40
2022-10-08T18:22:11.835Z,7.13
2022-10-08T18:27:12.600Z,6.82
2022-10-08T18:32:13.464Z,8.45
2022-10-08T18:37:16.049Z,8.07
2022-10-08T18:42:17.575Z,10.13
2022-10-08T18:47:18.642Z,6.38
2022-10-08T18:52:23.226Z,6.53
2022-10-08T18:57:24.005Z,5.57
2022-10-08T19:02:24.935Z,10.95
2022-10-08T19:07:27.153Z,5.35
2022-10-08T19:12:27.991Z,5.65
2022-10-08T19:17:29.909Z,7.72
2022-10-08T19:22:32.073Z,6.47
2022-10-08T19:27:32.971Z,7.45
2022-10-08T19:32:33.807Z,8.05
2022-10-08T19:37:36.383Z,9.00
2022-10-08T19:42:37.221Z,6.85
2022-10-08T19:47:38.215Z,5.43
2022-10-08T19:52:40.492Z,6.00
2022-10-08T19:57:41.304Z,8.18
2022-10-08T20:02:42.243Z,8.57
2022-10-08T20:07:44.643Z,5.50
2022-10-08T20:12:45.807Z,4.88
2022-10-08T20:17:47.161Z,5.10
2022-10-08T20:22:49.561Z,5.47
2022-10-08T20:27:50.711Z,7.93
2022-10-08T20:32:51.631Z,5.55
2022-10-08T20:37:53.894Z,3.72
2022-10-08T20:42:54.735Z,5.13
2022-10-08T20:47:55.675Z,5.28
2022-10-08T20:52:57.857Z,6.43
2022-10-08T20:57:58.667Z,6.20
2022-10-08T21:02:59.682Z,7.75
2022-10-08T21:08:01.820Z,3.33
2022-10-08T21:13:02.686Z,8.18
2022-10-08T21:18:03.478Z,9.60
2022-10-08T21:23:05.908Z,8.68
2022-10-08T21:31:53.911Z,6.07
2022-10-08T21:36:54.819Z,6.95
2022-10-08T21:41:55.630Z,5.32
2022-10-08T21:46:57.767Z,5.43
2022-10-08T21:51:58.588Z,6.40
2022-10-08T21:56:59.398Z,4.88
2022-10-08T22:02:01.612Z,13.55
2022-10-08T22:07:04.594Z,4.95
2022-10-08T22:12:05.717Z,6.22
2022-10-08T22:17:07.910Z,5.85
2022-10-08T22:22:08.676Z,13.18
2022-10-08T22:27:09.460Z,11.65
2022-10-08T22:32:11.566Z,9.43
2022-10-08T22:37:12.411Z,4.60
2022-10-08T22:42:13.185Z,9.38
2022-10-08T22:47:15.335Z,6.45
2022-10-08T22:52:16.111Z,10.55
2022-10-08T22:57:16.886Z,10.27
2022-10-08T23:02:19.120Z,9.73
2022-10-08T23:07:19.932Z,15.98
2022-10-08T23:12:20.889Z,18.90
2022-10-08T23:17:23.013Z,11.77
2022-10-08T23:22:23.765Z,11.55
2022-10-08T23:27:24.606Z,12.75
2022-10-08T23:32:26.740Z,7.65
2022-10-08T23:37:27.498Z,12.52
2022-10-08T23:42:28.287Z,11.13
2022-10-08T23:47:30.458Z,15.93
2022-10-08T23:52:31.262Z,12.68
2022-10-08T23:57:32.043Z,8.07
